EJU47Y LEMD-LPPR
Flight info
| Callsign | EJU47Y |
|---|---|
| Flight time | 0h 48m |
| Altitude | 30000 |
| Route | BARDI DCT RIVRO DCT PESUL |
| Aircraft | A320/M-SDE3FGHIRWY/LB1 |
Departure
| Time | 2026-05-07 18:02 |
|---|---|
| Airport | Adolfo Suárez Madrid–Barajas Airport (LEMD) |
Arrival
| Time | 2026-05-07 18:50 |
|---|---|
| Airport | Francisco de Sá Carneiro Airport (LPPR) |
| Time | Latitude | Longitude | Altitude | Speed | Heading |
|---|---|---|---|---|---|
| 2026-05-07 17:40 | 40.49412 | -3.56869 | 1980 ft | 0 kts | 89° |
| 2026-05-07 17:52 | 40.49411 | -3.56887 | 1962 ft | 4 kts | 90° |
| 2026-05-07 17:52 | 40.49412 | -3.56923 | 1981 ft | 4 kts | 94° |
| 2026-05-07 17:52 | 40.49415 | -3.56958 | 1986 ft | 4 kts | 101° |
| 2026-05-07 17:52 | 40.49422 | -3.56991 | 1984 ft | 4 kts | 124° |
| 2026-05-07 17:53 | 40.49437 | -3.57007 | 1985 ft | 1 kts | 180° |
| 2026-05-07 17:53 | 40.49441 | -3.57007 | 1985 ft | 2 kts | 180° |
| 2026-05-07 17:55 | 40.49440 | -3.57007 | 1985 ft | 2 kts | 180° |
| 2026-05-07 17:56 | 40.49381 | -3.57007 | 1985 ft | 9 kts | 179° |
| 2026-05-07 17:56 | 40.49325 | -3.57008 | 1986 ft | 7 kts | 189° |
| 2026-05-07 17:56 | 40.49298 | -3.57042 | 1989 ft | 4 kts | 244° |
| 2026-05-07 17:56 | 40.49291 | -3.57066 | 1989 ft | 7 kts | 250° |
| 2026-05-07 17:57 | 40.49244 | -3.57116 | 1990 ft | 8 kts | 190° |
| 2026-05-07 17:57 | 40.49208 | -3.57129 | 1991 ft | 10 kts | 206° |
| 2026-05-07 17:57 | 40.49184 | -3.57220 | 1992 ft | 7 kts | 270° |
| 2026-05-07 17:57 | 40.49184 | -3.57327 | 1993 ft | 12 kts | 269° |
| 2026-05-07 17:58 | 40.49183 | -3.57346 | 1993 ft | 0 kts | 269° |
| 2026-05-07 18:00 | 40.49183 | -3.57348 | 1993 ft | 2 kts | 269° |
| 2026-05-07 18:00 | 40.49189 | -3.57429 | 1994 ft | 11 kts | 292° |
| 2026-05-07 18:01 | 40.49256 | -3.57460 | 1993 ft | 15 kts | 0° |
| 2026-05-07 18:01 | 40.49560 | -3.57462 | 1995 ft | 79 kts | 359° |
| 2026-05-07 18:01 | 40.50329 | -3.57467 | 1996 ft | 139 kts | 360° |
| 2026-05-07 18:01 | 40.51445 | -3.57471 | 2175 ft | 168 kts | 360° |
| 2026-05-07 18:02 | 40.53729 | -3.57517 | 3564 ft | 171 kts | 0° |
| 2026-05-07 18:02 | 40.54995 | -3.57541 | 3875 ft | 193 kts | 353° |
| 2026-05-07 18:02 | 40.56250 | -3.58296 | 4264 ft | 211 kts | 311° |
| 2026-05-07 18:03 | 40.57116 | -3.59934 | 4726 ft | 225 kts | 303° |
| 2026-05-07 18:03 | 40.58113 | -3.61578 | 5367 ft | 233 kts | 310° |
| 2026-05-07 18:03 | 40.59269 | -3.63090 | 6175 ft | 236 kts | 318° |
| 2026-05-07 18:03 | 40.60547 | -3.64455 | 6983 ft | 238 kts | 321° |
| 2026-05-07 18:04 | 40.61865 | -3.65785 | 7778 ft | 239 kts | 321° |
| 2026-05-07 18:04 | 40.63085 | -3.67272 | 8578 ft | 240 kts | 304° |
| 2026-05-07 18:04 | 40.63849 | -3.69214 | 9262 ft | 246 kts | 284° |
| 2026-05-07 18:04 | 40.64029 | -3.71531 | 9605 ft | 267 kts | 267° |
| 2026-05-07 18:05 | 40.63989 | -3.74055 | 10108 ft | 282 kts | 267° |
| 2026-05-07 18:05 | 40.63947 | -3.76740 | 10427 ft | 305 kts | 268° |
| 2026-05-07 18:05 | 40.63903 | -3.79624 | 10805 ft | 323 kts | 268° |
| 2026-05-07 18:05 | 40.63857 | -3.82611 | 11493 ft | 329 kts | 268° |
| 2026-05-07 18:06 | 40.63809 | -3.85644 | 12247 ft | 333 kts | 268° |
| 2026-05-07 18:06 | 40.63760 | -3.88717 | 13013 ft | 337 kts | 268° |
| 2026-05-07 18:06 | 40.63711 | -3.91822 | 13763 ft | 341 kts | 268° |
| 2026-05-07 18:06 | 40.63659 | -3.94960 | 14443 ft | 345 kts | 268° |
| 2026-05-07 18:07 | 40.63605 | -3.98126 | 15126 ft | 348 kts | 268° |
| 2026-05-07 18:07 | 40.63549 | -4.01320 | 15801 ft | 351 kts | 268° |
| 2026-05-07 18:07 | 40.63488 | -4.04543 | 16469 ft | 354 kts | 268° |
| 2026-05-07 18:07 | 40.63428 | -4.07794 | 17129 ft | 357 kts | 268° |
| 2026-05-07 18:08 | 40.63366 | -4.11073 | 17788 ft | 360 kts | 268° |
| 2026-05-07 18:08 | 40.63304 | -4.14334 | 18404 ft | 362 kts | 268° |
| 2026-05-07 18:08 | 40.63242 | -4.17660 | 18965 ft | 365 kts | 268° |
| 2026-05-07 18:08 | 40.63175 | -4.21014 | 19553 ft | 367 kts | 268° |
| 2026-05-07 18:09 | 40.63106 | -4.24385 | 20141 ft | 370 kts | 268° |
| 2026-05-07 18:09 | 40.63039 | -4.27777 | 20731 ft | 372 kts | 268° |
| 2026-05-07 18:09 | 40.62973 | -4.31198 | 21301 ft | 375 kts | 269° |
| 2026-05-07 18:09 | 40.62905 | -4.34636 | 21867 ft | 378 kts | 269° |
| 2026-05-07 18:10 | 40.62833 | -4.38106 | 22447 ft | 380 kts | 269° |
| 2026-05-07 18:10 | 40.62757 | -4.41599 | 23023 ft | 383 kts | 269° |
| 2026-05-07 18:10 | 40.62677 | -4.45110 | 23565 ft | 385 kts | 269° |
| 2026-05-07 18:10 | 40.62599 | -4.48642 | 23839 ft | 386 kts | 269° |
| 2026-05-07 18:11 | 40.62350 | -4.52150 | 23908 ft | 386 kts | 261° |
| 2026-05-07 18:11 | 40.61909 | -4.54420 | 23919 ft | 388 kts | 253° |
| 2026-05-07 18:11 | 40.60336 | -4.58711 | 23921 ft | 392 kts | 239° |
| 2026-05-07 18:11 | 40.58715 | -4.61606 | 23919 ft | 393 kts | 236° |
| 2026-05-07 18:12 | 40.57069 | -4.64485 | 23919 ft | 393 kts | 236° |
| 2026-05-07 18:12 | 40.55427 | -4.67367 | 24012 ft | 396 kts | 236° |
| 2026-05-07 18:12 | 40.53773 | -4.70277 | 24507 ft | 397 kts | 237° |
| 2026-05-07 18:12 | 40.52119 | -4.73190 | 24979 ft | 398 kts | 237° |
| 2026-05-07 18:13 | 40.50459 | -4.76109 | 25450 ft | 399 kts | 237° |
| 2026-05-07 18:13 | 40.48793 | -4.79035 | 25898 ft | 400 kts | 238° |
| 2026-05-07 18:13 | 40.47128 | -4.81973 | 26340 ft | 400 kts | 240° |
| 2026-05-07 18:13 | 40.45758 | -4.85122 | 26762 ft | 395 kts | 250° |
| 2026-05-07 18:14 | 40.44885 | -4.88513 | 27186 ft | 391 kts | 261° |
| 2026-05-07 18:14 | 40.44526 | -4.92026 | 27602 ft | 388 kts | 271° |
| 2026-05-07 18:14 | 40.44676 | -4.95550 | 27996 ft | 387 kts | 279° |
| 2026-05-07 18:14 | 40.45058 | -4.99003 | 28396 ft | 388 kts | 279° |
| 2026-05-07 18:15 | 40.45446 | -5.02554 | 28798 ft | 389 kts | 279° |
| 2026-05-07 18:15 | 40.45819 | -5.06028 | 29171 ft | 390 kts | 279° |
| 2026-05-07 18:15 | 40.46192 | -5.09552 | 29537 ft | 391 kts | 279° |
| 2026-05-07 18:15 | 40.46566 | -5.13097 | 29845 ft | 392 kts | 279° |
| 2026-05-07 18:16 | 40.46935 | -5.16614 | 29906 ft | 382 kts | 279° |
| 2026-05-07 18:16 | 40.47289 | -5.20004 | 29904 ft | 369 kts | 279° |
| 2026-05-07 18:16 | 40.47637 | -5.23321 | 29902 ft | 365 kts | 278° |
| 2026-05-07 18:17 | 40.48327 | -5.29900 | 29903 ft | 363 kts | 278° |
| 2026-05-07 18:17 | 40.48898 | -5.35362 | 29903 ft | 363 kts | 278° |
| 2026-05-07 18:18 | 40.49582 | -5.41942 | 29901 ft | 364 kts | 278° |
| 2026-05-07 18:18 | 40.50255 | -5.48541 | 29898 ft | 364 kts | 278° |
| 2026-05-07 18:19 | 40.50927 | -5.55141 | 29890 ft | 364 kts | 278° |
| 2026-05-07 18:19 | 40.51601 | -5.61738 | 29883 ft | 364 kts | 278° |
| 2026-05-07 18:20 | 40.52276 | -5.68334 | 29876 ft | 364 kts | 278° |
| 2026-05-07 18:20 | 40.52941 | -5.74935 | 29874 ft | 365 kts | 278° |
| 2026-05-07 18:21 | 40.53599 | -5.81544 | 29874 ft | 365 kts | 277° |
| 2026-05-07 18:21 | 40.54252 | -5.88117 | 29874 ft | 365 kts | 277° |
| 2026-05-07 18:22 | 40.54912 | -5.94737 | 29870 ft | 365 kts | 277° |
| 2026-05-07 18:22 | 40.55567 | -6.01360 | 29858 ft | 365 kts | 277° |
| 2026-05-07 18:23 | 40.56213 | -6.07995 | 29863 ft | 367 kts | 277° |
| 2026-05-07 18:23 | 40.56864 | -6.14647 | 29864 ft | 367 kts | 277° |
| 2026-05-07 18:24 | 40.57508 | -6.21306 | 29860 ft | 367 kts | 277° |
| 2026-05-07 18:24 | 40.58137 | -6.27979 | 29861 ft | 367 kts | 276° |
| 2026-05-07 18:25 | 40.58765 | -6.34654 | 29860 ft | 368 kts | 276° |
| 2026-05-07 18:25 | 40.59477 | -6.41315 | 29856 ft | 368 kts | 280° |
| 2026-05-07 18:26 | 40.60591 | -6.47899 | 29855 ft | 369 kts | 282° |
| 2026-05-07 18:26 | 40.61781 | -6.54528 | 29872 ft | 372 kts | 282° |
| 2026-05-07 18:27 | 40.62944 | -6.61150 | 29872 ft | 371 kts | 281° |
| 2026-05-07 18:27 | 40.64095 | -6.67775 | 29871 ft | 371 kts | 281° |
| 2026-05-07 18:28 | 40.65249 | -6.74411 | 29868 ft | 372 kts | 281° |
| 2026-05-07 18:28 | 40.66403 | -6.81047 | 29870 ft | 372 kts | 281° |
| 2026-05-07 18:29 | 40.67553 | -6.87681 | 29863 ft | 372 kts | 281° |
| 2026-05-07 18:29 | 40.68711 | -6.94403 | 29871 ft | 389 kts | 281° |
| 2026-05-07 18:30 | 40.69927 | -7.01502 | 29873 ft | 402 kts | 281° |
| 2026-05-07 18:30 | 40.70540 | -7.05067 | 29588 ft | 395 kts | 281° |
| 2026-05-07 18:30 | 40.71143 | -7.08573 | 28971 ft | 391 kts | 281° |
| 2026-05-07 18:30 | 40.71739 | -7.12059 | 28323 ft | 388 kts | 281° |
| 2026-05-07 18:31 | 40.72274 | -7.15213 | 27683 ft | 383 kts | 281° |
| 2026-05-07 18:31 | 40.72850 | -7.18628 | 26662 ft | 380 kts | 281° |
| 2026-05-07 18:31 | 40.73421 | -7.22020 | 25679 ft | 378 kts | 281° |
| 2026-05-07 18:31 | 40.73987 | -7.25368 | 25061 ft | 367 kts | 281° |
| 2026-05-07 18:32 | 40.74531 | -7.28583 | 24662 ft | 352 kts | 281° |
| 2026-05-07 18:32 | 40.75059 | -7.31709 | 24235 ft | 348 kts | 281° |
| 2026-05-07 18:32 | 40.75581 | -7.34813 | 23806 ft | 346 kts | 281° |
| 2026-05-07 18:32 | 40.76097 | -7.37908 | 23347 ft | 345 kts | 281° |
| 2026-05-07 18:33 | 40.76612 | -7.40991 | 22869 ft | 343 kts | 281° |
| 2026-05-07 18:33 | 40.77124 | -7.44046 | 22434 ft | 340 kts | 281° |
| 2026-05-07 18:33 | 40.77630 | -7.47078 | 22002 ft | 337 kts | 281° |
| 2026-05-07 18:33 | 40.78134 | -7.50095 | 21575 ft | 336 kts | 281° |
| 2026-05-07 18:34 | 40.78636 | -7.53096 | 21152 ft | 334 kts | 281° |
| 2026-05-07 18:34 | 40.79134 | -7.56079 | 20733 ft | 332 kts | 281° |
| 2026-05-07 18:34 | 40.79632 | -7.59048 | 20318 ft | 331 kts | 281° |
| 2026-05-07 18:34 | 40.80127 | -7.62006 | 19900 ft | 330 kts | 280° |
| 2026-05-07 18:35 | 40.80610 | -7.64924 | 19492 ft | 329 kts | 280° |
| 2026-05-07 18:35 | 40.81101 | -7.67915 | 19079 ft | 329 kts | 280° |
| 2026-05-07 18:35 | 40.81583 | -7.70863 | 18665 ft | 329 kts | 280° |
| 2026-05-07 18:35 | 40.82068 | -7.73817 | 18261 ft | 329 kts | 280° |
| 2026-05-07 18:36 | 40.82547 | -7.76728 | 17813 ft | 329 kts | 280° |
| 2026-05-07 18:36 | 40.83031 | -7.79671 | 17407 ft | 327 kts | 280° |
| 2026-05-07 18:36 | 40.83511 | -7.82605 | 17001 ft | 326 kts | 279° |
| 2026-05-07 18:36 | 40.83987 | -7.85525 | 16610 ft | 325 kts | 280° |
| 2026-05-07 18:37 | 40.84462 | -7.88443 | 16215 ft | 324 kts | 279° |
| 2026-05-07 18:37 | 40.84936 | -7.91349 | 15823 ft | 324 kts | 280° |
| 2026-05-07 18:37 | 40.85412 | -7.94254 | 15441 ft | 323 kts | 279° |
| 2026-05-07 18:37 | 40.85885 | -7.97157 | 15046 ft | 323 kts | 279° |
| 2026-05-07 18:38 | 40.86356 | -8.00060 | 14650 ft | 323 kts | 279° |
| 2026-05-07 18:38 | 40.86823 | -8.02963 | 14256 ft | 323 kts | 279° |
| 2026-05-07 18:38 | 40.87285 | -8.05865 | 13871 ft | 323 kts | 279° |
| 2026-05-07 18:38 | 40.87749 | -8.08772 | 13446 ft | 323 kts | 279° |
| 2026-05-07 18:39 | 40.88218 | -8.11664 | 13049 ft | 321 kts | 280° |
| 2026-05-07 18:39 | 40.88747 | -8.14525 | 12647 ft | 320 kts | 282° |
| 2026-05-07 18:39 | 40.89331 | -8.17361 | 12246 ft | 319 kts | 283° |
| 2026-05-07 18:39 | 40.89938 | -8.20178 | 11888 ft | 317 kts | 283° |
| 2026-05-07 18:40 | 40.90535 | -8.22933 | 11739 ft | 307 kts | 283° |
| 2026-05-07 18:40 | 40.91112 | -8.25630 | 11321 ft | 303 kts | 282° |
| 2026-05-07 18:40 | 40.91675 | -8.28299 | 10706 ft | 300 kts | 282° |
| 2026-05-07 18:40 | 40.92216 | -8.30881 | 10298 ft | 290 kts | 282° |
| 2026-05-07 18:41 | 40.92744 | -8.33411 | 9922 ft | 281 kts | 282° |
| 2026-05-07 18:41 | 40.93256 | -8.35895 | 9519 ft | 272 kts | 281° |
| 2026-05-07 18:41 | 40.93741 | -8.38264 | 9148 ft | 262 kts | 281° |
| 2026-05-07 18:41 | 40.94209 | -8.40550 | 8794 ft | 256 kts | 281° |
| 2026-05-07 18:42 | 40.94663 | -8.42782 | 8428 ft | 251 kts | 281° |
| 2026-05-07 18:42 | 40.95111 | -8.44976 | 7989 ft | 245 kts | 281° |
| 2026-05-07 18:42 | 40.95553 | -8.47154 | 7463 ft | 245 kts | 281° |
| 2026-05-07 18:42 | 40.95996 | -8.49332 | 6947 ft | 244 kts | 281° |
| 2026-05-07 18:43 | 40.96433 | -8.51474 | 6531 ft | 238 kts | 281° |
| 2026-05-07 18:43 | 40.96863 | -8.53574 | 6102 ft | 234 kts | 281° |
| 2026-05-07 18:43 | 40.97282 | -8.55628 | 5665 ft | 229 kts | 282° |
| 2026-05-07 18:43 | 40.97692 | -8.57641 | 5230 ft | 224 kts | 282° |
| 2026-05-07 18:44 | 40.98240 | -8.59552 | 4800 ft | 223 kts | 300° |
| 2026-05-07 18:44 | 40.99300 | -8.61028 | 4356 ft | 223 kts | 324° |
| 2026-05-07 18:44 | 41.00722 | -8.61807 | 3922 ft | 222 kts | 347° |
| 2026-05-07 18:44 | 41.02228 | -8.62199 | 3497 ft | 219 kts | 346° |
| 2026-05-07 18:45 | 41.03717 | -8.62594 | 3079 ft | 216 kts | 347° |
| 2026-05-07 18:45 | 41.05132 | -8.62972 | 3003 ft | 201 kts | 347° |
| 2026-05-07 18:45 | 41.06470 | -8.63327 | 3038 ft | 188 kts | 346° |
| 2026-05-07 18:45 | 41.07701 | -8.63648 | 3016 ft | 172 kts | 346° |
| 2026-05-07 18:46 | 41.08822 | -8.63940 | 2994 ft | 156 kts | 346° |
| 2026-05-07 18:46 | 41.09847 | -8.64206 | 2981 ft | 146 kts | 346° |
| 2026-05-07 18:46 | 41.10834 | -8.64464 | 2746 ft | 142 kts | 346° |
| 2026-05-07 18:46 | 41.11799 | -8.64717 | 2541 ft | 140 kts | 346° |
| 2026-05-07 18:47 | 41.12750 | -8.64965 | 2353 ft | 138 kts | 346° |
| 2026-05-07 18:47 | 41.13699 | -8.65213 | 2163 ft | 139 kts | 346° |
| 2026-05-07 18:47 | 41.14643 | -8.65461 | 1977 ft | 138 kts | 347° |
| 2026-05-07 18:47 | 41.15583 | -8.65707 | 1791 ft | 138 kts | 347° |
| 2026-05-07 18:48 | 41.16524 | -8.65954 | 1606 ft | 138 kts | 346° |
| 2026-05-07 18:48 | 41.17461 | -8.66201 | 1431 ft | 137 kts | 346° |
| 2026-05-07 18:48 | 41.18394 | -8.66445 | 1244 ft | 137 kts | 346° |
| 2026-05-07 18:48 | 41.19320 | -8.66687 | 1083 ft | 135 kts | 347° |
| 2026-05-07 18:49 | 41.20238 | -8.66923 | 899 ft | 133 kts | 346° |
| 2026-05-07 18:49 | 41.21143 | -8.67163 | 705 ft | 133 kts | 346° |
| 2026-05-07 18:49 | 41.22054 | -8.67397 | 547 ft | 133 kts | 347° |
| 2026-05-07 18:49 | 41.22952 | -8.67635 | 361 ft | 131 kts | 346° |
| 2026-05-07 18:50 | 41.23830 | -8.67870 | 223 ft | 117 kts | 349° |
| 2026-05-07 18:50 | 41.24451 | -8.68033 | 208 ft | 66 kts | 348° |
| 2026-05-07 18:50 | 41.24756 | -8.68112 | 201 ft | 35 kts | 348° |
| 2026-05-07 18:50 | 41.24995 | -8.68174 | 192 ft | 36 kts | 350° |
| 2026-05-07 18:51 | 41.25164 | -8.68150 | 183 ft | 14 kts | 20° |
| 2026-05-07 18:51 | 41.25268 | -8.68108 | 179 ft | 14 kts | 25° |
| 2026-05-07 18:51 | 41.25277 | -8.68029 | 178 ft | 9 kts | 137° |
| 2026-05-07 18:51 | 41.25224 | -8.68012 | 179 ft | 7 kts | 169° |
| 2026-05-07 18:52 | 41.25190 | -8.68002 | 180 ft | 3 kts | 164° |
| 2026-05-07 18:52 | 41.25183 | -8.67999 | 181 ft | 0 kts | 163° |
| 2026-05-07 18:52 | 41.25165 | -8.67992 | 181 ft | 5 kts | 163° |
| 2026-05-07 18:52 | 41.25100 | -8.67973 | 186 ft | 18 kts | 168° |
| 2026-05-07 18:53 | 41.24986 | -8.67944 | 199 ft | 15 kts | 170° |
| 2026-05-07 18:53 | 41.24860 | -8.67912 | 202 ft | 22 kts | 168° |
| 2026-05-07 18:53 | 41.24741 | -8.67824 | 202 ft | 17 kts | 159° |
| 2026-05-07 18:53 | 41.24618 | -8.67790 | 205 ft | 23 kts | 169° |
| 2026-05-07 18:54 | 41.24469 | -8.67749 | 211 ft | 20 kts | 170° |
| 2026-05-07 18:54 | 41.24341 | -8.67715 | 212 ft | 18 kts | 167° |
| 2026-05-07 18:54 | 41.24257 | -8.67626 | 215 ft | 13 kts | 129° |
| 2026-05-07 18:54 | 41.24180 | -8.67570 | 221 ft | 16 kts | 169° |
| 2026-05-07 18:55 | 41.24079 | -8.67543 | 221 ft | 14 kts | 168° |
| 2026-05-07 18:55 | 41.23954 | -8.67511 | 226 ft | 20 kts | 168° |
| 2026-05-07 18:55 | 41.23831 | -8.67478 | 229 ft | 14 kts | 171° |
| 2026-05-07 18:55 | 41.23748 | -8.67438 | 230 ft | 12 kts | 137° |
| 2026-05-07 18:56 | 41.23700 | -8.67360 | 232 ft | 9 kts | 138° |
| 2026-05-07 18:56 | 41.23647 | -8.67334 | 234 ft | 7 kts | 169° |
| 2026-05-07 18:56 | 41.23603 | -8.67326 | 234 ft | 6 kts | 174° |
| 2026-05-07 18:56 | 41.23567 | -8.67294 | 234 ft | 9 kts | 120° |
| 2026-05-07 18:57 | 41.23554 | -8.67253 | 237 ft | 3 kts | 111° |
| 2026-05-07 18:57 | 41.23550 | -8.67242 | 236 ft | 0 kts | 111° |